createdAt,value
2022-10-03T00:02:37.754Z,12.59
2022-10-03T00:05:29.018Z,12.57
2022-10-03T00:08:15.110Z,12.53
2022-10-03T00:11:00.150Z,12.50
2022-10-03T00:13:54.596Z,12.47
2022-10-03T00:16:48.679Z,12.44
2022-10-03T00:19:45.435Z,12.41
2022-10-03T00:22:33.869Z,12.37
2022-10-03T00:25:37.370Z,12.28
2022-10-03T00:28:13.894Z,12.37
2022-10-03T00:30:56.737Z,12.37
2022-10-03T00:33:44.553Z,12.34
2022-10-03T00:36:21.746Z,12.30
2022-10-03T00:38:59.765Z,12.28
2022-10-03T00:41:26.310Z,12.27
2022-10-03T00:44:34.242Z,12.25
2022-10-03T00:47:03.447Z,12.22
2022-10-03T00:49:50.194Z,12.19
2022-10-03T00:52:36.659Z,12.18
2022-10-03T00:55:34.536Z,12.13
2022-10-03T00:58:00.965Z,12.16
2022-10-03T01:00:30.515Z,12.15
2022-10-03T01:03:28.231Z,12.12
2022-10-03T01:06:19.746Z,12.09
2022-10-03T01:09:10.649Z,12.06
2022-10-03T01:12:04.561Z,12.02
2022-10-03T01:14:52.429Z,11.99
2022-10-03T01:17:37.381Z,11.95
2022-10-03T01:20:28.578Z,11.94
2022-10-03T01:23:32.747Z,11.95
2022-10-03T01:26:05.175Z,11.98
2022-10-03T01:29:25.842Z,12.02
2022-10-03T01:32:16.847Z,12.09
2022-10-03T01:35:10.605Z,12.14
2022-10-03T01:38:09.053Z,12.19
2022-10-03T01:41:03.104Z,12.23
2022-10-03T01:43:51.352Z,12.26
2022-10-03T01:46:22.733Z,12.21
2022-10-03T01:48:55.327Z,12.33
2022-10-03T01:51:29.640Z,12.35
2022-10-03T01:54:30.578Z,12.34
2022-10-03T01:57:35.205Z,12.35
2022-10-03T02:00:10.680Z,12.35
2022-10-03T02:02:44.226Z,12.32
2022-10-03T02:05:48.101Z,12.30
2022-10-03T02:08:17.113Z,12.28
2022-10-03T02:10:52.610Z,12.26
2022-10-03T02:13:28.222Z,12.26
2022-10-03T02:16:09.588Z,12.25
2022-10-03T02:18:46.239Z,12.25
2022-10-03T02:21:20.946Z,12.23
2022-10-03T02:23:49.420Z,12.27
2022-10-03T02:26:31.314Z,12.27
2022-10-03T02:29:11.177Z,12.29
2022-10-03T02:31:54.809Z,12.29
2022-10-03T02:34:24.277Z,12.28
2022-10-03T02:37:19.364Z,12.27
2022-10-03T02:40:18.410Z,12.25
2022-10-03T02:43:12.014Z,12.26
2022-10-03T02:45:50.621Z,12.25
2022-10-03T02:48:47.976Z,12.25
2022-10-03T02:51:52.109Z,12.22
2022-10-03T02:55:01.715Z,12.19
2022-10-03T02:57:41.232Z,12.18
2022-10-03T03:00:14.917Z,12.15
2022-10-03T03:03:01.326Z,12.08
2022-10-03T03:05:52.476Z,12.08
2022-10-03T03:08:28.016Z,12.04
2022-10-03T03:11:26.341Z,12.01
2022-10-03T03:14:18.611Z,12.00
2022-10-03T03:17:01.364Z,12.00
2022-10-03T03:19:46.835Z,11.98
2022-10-03T03:22:45.734Z,11.94
2022-10-03T03:25:24.496Z,11.94
2022-10-03T03:28:27.183Z,11.88
2022-10-03T03:31:16.566Z,11.85
2022-10-03T03:34:07.530Z,11.82
2022-10-03T03:36:39.847Z,11.77
2022-10-03T03:39:24.092Z,11.73
2022-10-03T03:42:13.039Z,11.68
2022-10-03T03:44:45.446Z,11.62
2022-10-03T03:47:22.028Z,11.55
2022-10-03T03:50:06.674Z,11.48
2022-10-03T03:53:03.080Z,11.43
2022-10-03T03:55:32.529Z,11.40
2022-10-03T03:58:08.809Z,11.35
2022-10-03T04:01:00.005Z,11.30
2022-10-03T04:03:58.123Z,11.25
2022-10-03T04:06:47.946Z,11.23
2022-10-03T04:09:30.328Z,11.18
2022-10-03T04:12:09.303Z,11.14
2022-10-03T04:14:38.559Z,11.12
2022-10-03T04:17:29.282Z,11.08
2022-10-03T04:20:27.470Z,11.06
2022-10-03T04:23:12.107Z,11.07
2022-10-03T04:26:00.090Z,11.08
2022-10-03T04:28:40.611Z,11.08
2022-10-03T04:31:25.891Z,11.07
2022-10-03T04:33:58.805Z,11.09
2022-10-03T04:36:49.919Z,11.03
2022-10-03T04:39:34.867Z,11.07
2022-10-03T04:42:10.390Z,11.03
2022-10-03T04:44:45.733Z,10.97
2022-10-03T04:47:48.649Z,10.93
2022-10-03T04:50:40.654Z,10.88
2022-10-03T04:53:25.926Z,10.83
2022-10-03T04:56:29.874Z,10.82
2022-10-03T04:59:27.453Z,10.79
2022-10-03T05:02:16.693Z,10.76
2022-10-03T05:05:13.767Z,10.73
2022-10-03T05:08:12.653Z,10.74
2022-10-03T05:10:39.133Z,10.73
2022-10-03T05:13:12.309Z,10.69
2022-10-03T05:15:54.693Z,10.65
2022-10-03T05:18:40.483Z,10.51
2022-10-03T05:21:16.322Z,10.60
2022-10-03T05:24:15.573Z,10.55
2022-10-03T05:26:58.841Z,10.52
2022-10-03T05:29:37.568Z,10.52
2022-10-03T05:32:20.140Z,10.52
2022-10-03T05:35:23.479Z,10.52
2022-10-03T05:38:34.131Z,10.55
2022-10-03T05:41:26.489Z,10.54
2022-10-03T05:44:01.656Z,10.54
2022-10-03T05:46:56.139Z,10.54
2022-10-03T05:50:03.773Z,10.56
2022-10-03T05:52:47.899Z,10.56
2022-10-03T05:55:51.575Z,10.56
2022-10-03T05:59:02.802Z,10.58
2022-10-03T06:01:47.502Z,10.65
2022-10-03T06:04:35.674Z,10.72
2022-10-03T06:07:23.570Z,10.74
2022-10-03T06:10:38.663Z,10.77
2022-10-03T06:13:13.807Z,10.83
2022-10-03T06:15:54.647Z,10.87
2022-10-03T06:18:52.712Z,10.90
2022-10-03T06:21:30.346Z,10.91
2022-10-03T06:24:48.139Z,10.95
2022-10-03T06:27:52.814Z,11.00
2022-10-03T06:30:56.077Z,11.05
2022-10-03T06:33:41.237Z,11.12
2022-10-03T06:36:07.687Z,11.18
2022-10-03T06:38:43.658Z,11.22
2022-10-03T06:41:26.016Z,11.27
2022-10-03T06:44:15.566Z,11.31
2022-10-03T06:47:16.182Z,11.32
2022-10-03T06:49:45.617Z,11.37
2022-10-03T06:52:29.218Z,11.36
2022-10-03T06:55:21.469Z,11.37
2022-10-03T06:58:25.722Z,11.40
2022-10-03T07:01:24.551Z,11.44
2022-10-03T07:04:10.299Z,11.52
2022-10-03T07:07:14.159Z,11.59
2022-10-03T07:10:13.022Z,11.68
2022-10-03T07:13:03.836Z,11.88
2022-10-03T07:16:25.415Z,11.99
2022-10-03T07:19:20.312Z,12.07
2022-10-03T07:22:14.455Z,12.16
2022-10-03T07:25:01.881Z,12.19
2022-10-03T07:27:51.563Z,12.35
2022-10-03T07:30:23.852Z,12.49
2022-10-03T07:33:28.145Z,12.59
2022-10-03T07:36:40.479Z,12.66
2022-10-03T07:39:18.953Z,12.69
2022-10-03T07:42:08.935Z,12.80
2022-10-03T07:45:00.514Z,13.01
2022-10-03T07:47:45.937Z,13.30
2022-10-03T07:50:21.391Z,13.57
2022-10-03T07:53:18.031Z,13.70
2022-10-03T07:56:20.146Z,13.68
2022-10-03T07:59:02.610Z,13.70
2022-10-03T08:01:47.242Z,13.81
2022-10-03T08:04:28.770Z,13.89
2022-10-03T08:07:20.362Z,14.16
2022-10-03T08:10:09.394Z,14.66
2022-10-03T08:13:03.637Z,14.96
2022-10-03T08:15:45.381Z,14.99
2022-10-03T08:18:38.026Z,14.96
2022-10-03T08:21:17.752Z,14.78
2022-10-03T08:24:04.318Z,14.71
2022-10-03T08:26:47.372Z,14.58
2022-10-03T08:29:51.870Z,14.40
2022-10-03T08:32:20.864Z,14.33
2022-10-03T08:35:02.915Z,14.21
2022-10-03T08:37:44.480Z,14.57
2022-10-03T08:40:19.985Z,14.84
2022-10-03T08:43:05.928Z,14.88
2022-10-03T08:45:53.831Z,14.86
2022-10-03T08:48:41.897Z,14.85
2022-10-03T08:51:11.377Z,14.87
2022-10-03T08:53:38.938Z,14.94
2022-10-03T08:56:24.521Z,14.91
2022-10-03T08:59:02.905Z,14.96
2022-10-03T09:02:26.825Z,14.87
2022-10-03T09:05:18.149Z,14.83
2022-10-03T09:08:10.990Z,14.81
2022-10-03T09:10:54.891Z,14.90
2022-10-03T09:13:33.578Z,14.98
2022-10-03T09:16:20.771Z,15.13
2022-10-03T09:18:59.291Z,15.18
2022-10-03T09:21:36.414Z,15.23
2022-10-03T09:24:19.619Z,15.29
2022-10-03T09:27:24.306Z,15.31
2022-10-03T09:30:08.046Z,15.30
2022-10-03T09:33:16.024Z,15.24
2022-10-03T09:36:04.462Z,15.14
2022-10-03T09:38:45.871Z,15.07
2022-10-03T09:41:30.470Z,15.06
2022-10-03T09:44:18.812Z,15.02
2022-10-03T09:47:33.871Z,15.18
2022-10-03T09:50:21.819Z,15.37
2022-10-03T09:53:07.073Z,15.41
2022-10-03T09:56:07.730Z,15.44
2022-10-03T09:58:40.927Z,15.48
2022-10-03T10:01:19.407Z,15.50
2022-10-03T10:03:45.981Z,15.57
2022-10-03T10:06:48.690Z,15.50
2022-10-03T10:09:54.082Z,15.46
2022-10-03T10:12:35.711Z,15.74
2022-10-03T10:15:17.006Z,16.03
2022-10-03T10:17:49.403Z,16.41
2022-10-03T10:21:08.013Z,16.66
2022-10-03T10:23:48.668Z,16.79
2022-10-03T10:26:36.858Z,16.71
2022-10-03T10:29:33.193Z,16.70
2022-10-03T10:32:21.576Z,16.80
2022-10-03T10:35:12.665Z,16.66
2022-10-03T10:37:54.743Z,16.65
2022-10-03T10:40:40.714Z,16.74
2022-10-03T10:43:24.131Z,17.03
2022-10-03T10:46:06.800Z,17.34
2022-10-03T10:49:11.039Z,17.82
2022-10-03T10:51:52.769Z,18.24
2022-10-03T10:54:34.510Z,18.29
2022-10-03T10:57:04.020Z,18.38
2022-10-03T10:59:55.698Z,18.61
2022-10-03T11:02:46.402Z,18.65
2022-10-03T11:05:25.135Z,18.51
2022-10-03T11:08:29.179Z,18.32
2022-10-03T11:11:21.224Z,17.91
2022-10-03T11:14:06.221Z,17.56
2022-10-03T11:17:00.749Z,17.39
2022-10-03T11:19:36.446Z,17.31
2022-10-03T11:22:18.333Z,17.19
2022-10-03T11:25:22.103Z,17.02
2022-10-03T11:28:07.301Z,16.86
2022-10-03T11:31:07.763Z,16.82
2022-10-03T11:34:25.812Z,16.75
2022-10-03T11:37:07.476Z,16.78
2022-10-03T11:39:55.337Z,16.76
2022-10-03T11:42:21.784Z,16.58
2022-10-03T11:45:11.181Z,16.61
2022-10-03T11:47:56.315Z,16.37
2022-10-03T11:51:15.893Z,16.01
2022-10-03T11:54:19.506Z,15.76
2022-10-03T11:56:52.176Z,15.59
2022-10-03T11:59:36.055Z,15.54
2022-10-03T12:02:21.330Z,15.34
2022-10-03T12:05:05.179Z,15.31
2022-10-03T12:08:03.471Z,15.31
2022-10-03T12:10:54.392Z,15.28
2022-10-03T12:13:36.563Z,15.28
2022-10-03T12:16:12.350Z,15.53
2022-10-03T12:18:42.739Z,15.73
2022-10-03T12:21:29.579Z,15.85
2022-10-03T12:24:14.783Z,15.91
2022-10-03T12:26:59.050Z,16.00
2022-10-03T12:29:29.918Z,15.85
2022-10-03T12:32:12.910Z,15.78
2022-10-03T12:34:55.134Z,15.53
2022-10-03T12:37:34.171Z,15.45
2022-10-03T12:40:38.225Z,15.55
2022-10-03T12:43:42.076Z,15.68
2022-10-03T12:46:17.258Z,15.85
2022-10-03T12:48:55.555Z,15.99
2022-10-03T12:51:43.416Z,16.09
2022-10-03T12:55:05.428Z,16.47
2022-10-03T12:57:49.837Z,16.75
2022-10-03T13:00:34.129Z,16.72
2022-10-03T13:03:26.048Z,16.57
2022-10-03T13:06:16.070Z,16.21
2022-10-03T13:09:11.883Z,16.01
2022-10-03T13:11:56.913Z,16.20
2022-10-03T13:14:44.829Z,16.17
2022-10-03T13:17:20.349Z,16.19
2022-10-03T13:20:01.330Z,16.16
2022-10-03T13:23:03.301Z,16.25
2022-10-03T13:25:41.479Z,16.19
2022-10-03T13:28:22.327Z,16.19
2022-10-03T13:30:57.299Z,16.23
2022-10-03T13:33:28.521Z,16.20
2022-10-03T13:36:05.577Z,16.14
2022-10-03T13:38:55.129Z,16.07
2022-10-03T13:41:34.122Z,15.94
2022-10-03T13:44:23.685Z,15.90
2022-10-03T13:46:54.318Z,15.73
2022-10-03T13:49:31.987Z,15.63
2022-10-03T13:52:30.667Z,15.55
2022-10-03T13:55:21.996Z,15.63
2022-10-03T13:57:56.848Z,15.64
2022-10-03T14:00:26.297Z,15.66
2022-10-03T14:03:14.790Z,15.64
2022-10-03T14:06:00.365Z,15.76
2022-10-03T14:08:45.781Z,15.78
2022-10-03T14:11:25.919Z,15.85
2022-10-03T14:14:08.243Z,15.88
2022-10-03T14:16:50.472Z,15.59
2022-10-03T14:19:23.523Z,15.52
2022-10-03T14:22:14.895Z,15.43
2022-10-03T14:24:57.843Z,15.37
2022-10-03T14:27:48.599Z,15.35
2022-10-03T14:30:21.681Z,15.17
2022-10-03T14:33:30.337Z,15.06
2022-10-03T14:36:11.536Z,15.08
2022-10-03T14:39:03.472Z,14.94
2022-10-03T14:41:32.768Z,15.05
2022-10-03T14:44:01.727Z,15.11
2022-10-03T14:46:34.110Z,15.09
2022-10-03T14:49:12.985Z,15.06
2022-10-03T14:51:54.176Z,14.98
2022-10-03T14:54:24.215Z,14.96
2022-10-03T14:56:52.336Z,14.99
2022-10-03T14:59:34.147Z,14.95
2022-10-03T15:02:22.779Z,14.91
2022-10-03T15:04:54.411Z,14.91
2022-10-03T15:07:35.980Z,14.88
2022-10-03T15:10:06.624Z,14.88
2022-10-03T15:12:34.904Z,14.85
2022-10-03T15:15:35.694Z,14.84
2022-10-03T15:18:04.743Z,14.79
2022-10-03T15:20:39.839Z,14.86
2022-10-03T15:23:17.922Z,14.78
2022-10-03T15:25:51.911Z,14.69
2022-10-03T15:28:27.962Z,14.68
2022-10-03T15:30:57.719Z,14.63
2022-10-03T15:33:33.358Z,14.61
2022-10-03T15:36:06.232Z,14.60
2022-10-03T15:38:37.983Z,14.59
2022-10-03T15:41:17.728Z,14.53
2022-10-03T15:43:52.265Z,14.41
2022-10-03T15:46:46.289Z,14.49
2022-10-03T15:49:23.570Z,14.52
2022-10-03T15:51:50.423Z,14.56
2022-10-03T15:54:23.172Z,14.46
2022-10-03T15:56:57.038Z,14.34
2022-10-03T15:59:28.321Z,14.28
2022-10-03T16:01:56.286Z,14.24
2022-10-03T16:04:24.576Z,14.24
2022-10-03T16:06:59.946Z,14.17
2022-10-03T16:09:46.277Z,14.09
2022-10-03T16:12:52.354Z,14.10
2022-10-03T16:15:21.262Z,14.12
2022-10-03T16:17:58.564Z,14.12
2022-10-03T16:20:35.971Z,14.11
2022-10-03T16:23:19.674Z,14.08
2022-10-03T16:25:55.254Z,14.05
2022-10-03T16:28:47.184Z,14.02
2022-10-03T16:31:21.848Z,13.97
2022-10-03T16:33:58.420Z,13.91
2022-10-03T16:36:25.626Z,13.85
2022-10-03T16:38:59.649Z,13.81
2022-10-03T16:41:35.045Z,13.79
2022-10-03T16:44:20.072Z,13.71
2022-10-03T16:46:48.190Z,13.68
2022-10-03T16:49:45.286Z,13.62
2022-10-03T16:52:18.802Z,13.58
2022-10-03T16:54:48.291Z,13.53
2022-10-03T16:57:20.544Z,13.44
2022-10-03T16:59:52.001Z,13.38
2022-10-03T17:02:24.340Z,13.41
2022-10-03T17:05:02.930Z,13.36
2022-10-03T17:07:36.150Z,13.21
2022-10-03T17:10:03.474Z,13.27
2022-10-03T17:12:37.151Z,13.08
2022-10-03T17:15:17.595Z,13.12
2022-10-03T17:18:02.332Z,13.02
2022-10-03T17:20:50.862Z,12.96
2022-10-03T17:23:39.550Z,12.89
2022-10-03T17:26:12.231Z,12.80
2022-10-03T17:28:47.700Z,12.70
2022-10-03T17:31:30.456Z,12.57
2022-10-03T17:34:09.683Z,12.54
2022-10-03T17:37:13.453Z,12.47
2022-10-03T17:39:54.610Z,12.41
2022-10-03T17:42:40.840Z,12.34
2022-10-03T17:45:33.446Z,12.28
2022-10-03T17:48:06.041Z,12.19
2022-10-03T17:50:45.479Z,12.15
2022-10-03T17:53:30.270Z,12.09
2022-10-03T17:56:21.049Z,12.03
2022-10-03T17:59:27.973Z,11.96
2022-10-03T18:02:01.493Z,11.92
2022-10-03T18:04:35.935Z,11.88
2022-10-03T18:07:33.578Z,11.85
2022-10-03T18:10:00.717Z,11.81
2022-10-03T18:12:36.223Z,11.77
2022-10-03T18:15:22.622Z,11.71
2022-10-03T18:18:37.539Z,11.67
2022-10-03T18:21:25.984Z,11.59
2022-10-03T18:23:55.923Z,11.52
2022-10-03T18:26:28.526Z,11.45
2022-10-03T18:29:37.131Z,11.39
2022-10-03T18:32:13.945Z,11.32
2022-10-03T18:35:06.570Z,11.29
2022-10-03T18:37:33.024Z,11.29
2022-10-03T18:40:00.263Z,11.29
2022-10-03T18:42:29.706Z,11.31
2022-10-03T18:44:58.234Z,11.33
2022-10-03T18:47:31.038Z,11.30
2022-10-03T18:50:26.192Z,11.26
2022-10-03T18:52:57.321Z,11.23
2022-10-03T18:55:34.394Z,11.16
2022-10-03T18:58:14.877Z,11.11
2022-10-03T19:00:51.531Z,11.08
2022-10-03T19:03:23.228Z,11.07
2022-10-03T19:06:20.578Z,11.01
2022-10-03T19:08:55.265Z,10.97
2022-10-03T19:11:28.667Z,10.93
2022-10-03T19:14:05.165Z,10.89
2022-10-03T19:16:47.443Z,10.87
2022-10-03T19:19:47.419Z,10.85
2022-10-03T19:22:16.778Z,10.86
2022-10-03T19:24:58.341Z,10.78
2022-10-03T19:27:41.978Z,10.78
2022-10-03T19:30:09.406Z,10.70
2022-10-03T19:32:41.097Z,10.78
2022-10-03T19:35:14.203Z,10.74
2022-10-03T19:37:47.299Z,10.70
2022-10-03T19:40:42.334Z,10.69
2022-10-03T19:43:20.905Z,10.69
2022-10-03T19:45:53.906Z,10.69
2022-10-03T19:48:22.528Z,10.65
2022-10-03T19:50:50.429Z,10.63
2022-10-03T19:53:18.530Z,10.61
2022-10-03T19:55:47.191Z,10.59
2022-10-03T19:58:24.710Z,10.55
2022-10-03T20:00:54.550Z,10.53
2022-10-03T20:03:52.201Z,10.48
2022-10-03T20:06:51.654Z,10.44
2022-10-03T20:09:23.901Z,10.43
2022-10-03T20:12:01.259Z,10.38
2022-10-03T20:14:36.325Z,10.34
2022-10-03T20:17:05.529Z,10.31
2022-10-03T20:19:54.326Z,10.26
2022-10-03T20:22:26.950Z,9.87
2022-10-03T20:24:53.848Z,10.20
2022-10-03T20:27:39.050Z,10.19
2022-10-03T20:30:24.294Z,10.17
2022-10-03T20:32:51.589Z,10.13
2022-10-03T20:35:35.576Z,10.10
2022-10-03T20:38:08.126Z,10.05
2022-10-03T20:40:38.319Z,10.07
2022-10-03T20:43:41.858Z,10.06
2022-10-03T20:46:30.316Z,10.04
2022-10-03T20:49:13.959Z,9.99
2022-10-03T20:51:55.100Z,10.00
2022-10-03T20:54:24.873Z,9.92
2022-10-03T20:57:15.463Z,9.96
2022-10-03T20:59:47.358Z,9.96
2022-10-03T21:02:58.242Z,9.88
2022-10-03T21:05:36.199Z,9.86
2022-10-03T21:08:18.117Z,9.81
2022-10-03T21:10:49.210Z,9.75
2022-10-03T21:13:42.553Z,9.68
2022-10-03T21:16:38.524Z,9.65
2022-10-03T21:19:29.454Z,9.61
2022-10-03T21:21:59.848Z,9.50
2022-10-03T21:24:30.829Z,9.55
2022-10-03T21:27:13.013Z,9.50
2022-10-03T21:29:41.124Z,9.35
2022-10-03T21:32:14.365Z,9.45
2022-10-03T21:34:46.566Z,9.47
2022-10-03T21:37:19.797Z,9.45
2022-10-03T21:39:52.306Z,9.40
2022-10-03T21:42:23.644Z,9.36
2022-10-03T21:45:05.987Z,9.29
2022-10-03T21:47:50.911Z,9.25
2022-10-03T21:50:25.273Z,9.09
2022-10-03T21:52:57.678Z,9.17
2022-10-03T21:55:52.725Z,9.13
2022-10-03T21:58:28.594Z,9.15
2022-10-03T22:01:22.938Z,9.01
2022-10-03T22:04:00.368Z,9.10
2022-10-03T22:06:42.726Z,9.03
2022-10-03T22:09:14.279Z,9.10
2022-10-03T22:11:44.825Z,9.12
2022-10-03T22:14:45.837Z,9.10
2022-10-03T22:17:35.024Z,8.95
2022-10-03T22:20:17.076Z,9.06
2022-10-03T22:23:04.850Z,9.04
2022-10-03T22:25:44.125Z,9.02
2022-10-03T22:28:32.412Z,8.99
2022-10-03T22:31:25.607Z,8.93
2022-10-03T22:34:23.102Z,8.89
2022-10-03T22:36:50.211Z,8.87
2022-10-03T22:39:18.789Z,8.85
2022-10-03T22:41:50.437Z,8.82
2022-10-03T22:44:19.377Z,8.76
2022-10-03T22:46:49.524Z,8.71
2022-10-03T22:49:25.053Z,8.72
2022-10-03T22:51:54.679Z,8.69
2022-10-03T22:54:23.154Z,8.64
2022-10-03T22:56:54.117Z,8.62
2022-10-03T22:59:28.142Z,8.54
2022-10-03T23:01:58.387Z,8.53
2022-10-03T23:04:40.784Z,8.52
2022-10-03T23:07:36.622Z,8.50
2022-10-03T23:10:24.328Z,8.52
2022-10-03T23:13:05.694Z,8.48
2022-10-03T23:15:35.810Z,8.48
2022-10-03T23:18:08.249Z,8.46
2022-10-03T23:20:48.878Z,8.43
2022-10-03T23:23:22.769Z,8.39
2022-10-03T23:26:29.254Z,8.37
2022-10-03T23:29:12.703Z,8.29
2022-10-03T23:32:08.049Z,8.31
2022-10-03T23:34:34.576Z,8.29
2022-10-03T23:37:13.308Z,8.29
2022-10-03T23:39:41.132Z,8.31
2022-10-03T23:42:18.848Z,8.29
2022-10-03T23:44:58.309Z,8.25
2022-10-03T23:47:38.698Z,8.25
2022-10-03T23:50:06.993Z,8.25
2022-10-03T23:52:46.625Z,8.21
2022-10-03T23:55:21.480Z,8.17
2022-10-03T23:57:50.718Z,8.17
